Time;durP1;ratioP1;P1;durP2;ratioP2;P2;SDS_P1;SDS_P2;PMS_P1;PMS_P2;Temp;Humidity;BMP_temperature;BMP_pressure;BME280_temperature;BME280_humidity;BME280_pressure;Samples;Min_cycle;Max_cycle;Signal;HPM_P1;HPM_P2
2023/04/25 00:00:41;;;;;;;9.30;9.00;;;11.10;99.90;;;;;;5073561;28;20548;-84
2023/04/25 00:03:09;;;;;;;9.50;9.20;;;11.10;99.90;;;;;;5075705;28;20446;-83
2023/04/25 00:05:39;;;;;;;9.80;9.50;;;11.10;99.90;;;;;;5073935;28;20454;-83
2023/04/25 00:08:08;;;;;;;9.47;9.23;;;11.00;99.90;;;;;;5075272;28;20460;-82
2023/04/25 00:10:36;;;;;;;9.37;9.17;;;11.00;99.90;;;;;;5074407;28;20488;-82
2023/04/25 00:13:04;;;;;;;9.13;8.93;;;11.00;99.90;;;;;;5075253;28;20476;-81
2023/04/25 00:15:32;;;;;;;9.70;9.30;;;11.00;99.90;;;;;;5076129;28;20455;-83
2023/04/25 00:18:00;;;;;;;9.23;9.03;;;11.00;99.90;;;;;;5071855;28;20457;-83
2023/04/25 00:20:29;;;;;;;9.03;8.73;;;11.00;99.90;;;;;;5070950;28;20509;-83
2023/04/25 00:22:59;;;;;;;10.27;9.90;;;11.00;99.90;;;;;;5076331;28;20551;-83
2023/04/25 00:25:27;;;;;;;9.47;9.27;;;11.00;99.90;;;;;;5077604;28;20529;-84
2023/04/25 00:27:55;;;;;;;9.43;8.97;;;11.00;99.90;;;;;;5072717;28;20474;-85
2023/04/25 00:30:24;;;;;;;9.60;9.30;;;11.10;99.90;;;;;;5082182;28;20486;-84
2023/04/25 00:32:52;;;;;;;9.23;8.90;;;11.10;99.90;;;;;;5075948;28;20460;-84
2023/04/25 00:35:21;;;;;;;9.27;8.97;;;11.00;99.90;;;;;;5072667;28;20455;-84
2023/04/25 00:37:49;;;;;;;9.20;9.00;;;11.00;99.90;;;;;;5076556;28;20504;-84
2023/04/25 00:40:18;;;;;;;9.53;9.20;;;11.10;99.90;;;;;;5078750;28;20479;-84
2023/04/25 00:42:48;;;;;;;9.80;9.50;;;11.10;99.90;;;;;;5079644;28;20450;-83
2023/04/25 00:45:17;;;;;;;9.97;9.67;;;11.00;99.90;;;;;;5078507;28;20550;-83
2023/04/25 00:47:47;;;;;;;9.20;8.90;;;11.10;99.90;;;;;;5075756;28;20507;-84
2023/04/25 00:50:15;;;;;;;9.27;8.90;;;11.10;99.90;;;;;;5079607;28;20475;-84
2023/04/25 00:52:45;;;;;;;9.30;9.00;;;11.10;99.90;;;;;;5079450;28;20455;-83
2023/04/25 00:55:15;;;;;;;9.33;9.13;;;11.10;99.90;;;;;;5071904;28;21001;-84
2023/04/25 00:57:45;;;;;;;8.90;8.70;;;11.10;99.90;;;;;;5088336;28;20437;-86
2023/04/25 01:00:14;;;;;;;8.93;8.73;;;11.10;99.90;;;;;;5096083;28;20453;-85
2023/04/25 01:02:42;;;;;;;9.20;8.80;;;11.00;99.90;;;;;;5095636;28;20487;-84
2023/04/25 01:05:11;;;;;;;9.27;9.07;;;11.00;99.90;;;;;;5097091;28;20824;-84
2023/04/25 01:07:41;;;;;;;9.67;9.37;;;11.00;99.90;;;;;;5076916;28;20472;-83
2023/04/25 01:10:10;;;;;;;9.40;9.10;;;11.10;99.90;;;;;;5072337;28;20537;-83
2023/04/25 01:12:38;;;;;;;8.97;8.77;;;11.10;99.90;;;;;;5081191;28;21030;-83
2023/04/25 01:15:08;;;;;;;9.30;9.00;;;11.10;99.90;;;;;;5077984;28;20440;-83
2023/04/25 01:17:37;;;;;;;9.00;8.80;;;11.00;99.90;;;;;;5079943;28;20448;-84
2023/04/25 01:20:06;;;;;;;9.50;9.20;;;11.00;99.90;;;;;;5080435;28;20542;-84
2023/04/25 01:22:36;;;;;;;10.60;10.00;;;11.00;99.90;;;;;;5080448;28;21359;-84
2023/04/25 01:25:06;;;;;;;9.67;9.30;;;11.00;99.90;;;;;;5082624;28;20968;-84
2023/04/25 01:27:34;;;;;;;10.17;9.83;;;10.90;99.90;;;;;;5096906;27;20878;-83
2023/04/25 01:30:03;;;;;;;10.20;9.80;;;10.80;99.90;;;;;;5079118;28;20489;-85
2023/04/25 01:32:37;;;;;;;9.47;9.10;;;10.70;99.90;;;;;;5080626;28;21392;-85
2023/04/25 01:35:09;;;;;;;10.80;10.33;;;10.70;99.90;;;;;;5084805;28;20450;-84
2023/04/25 01:37:39;;;;;;;9.77;9.37;;;10.70;99.90;;;;;;5080806;28;20532;-85
2023/04/25 01:40:09;;;;;;;9.37;9.07;;;10.60;99.90;;;;;;5078887;28;20456;-85
2023/04/25 01:42:39;;;;;;;8.80;8.50;;;10.50;99.90;;;;;;5081410;28;20968;-84
2023/04/25 01:45:10;;;;;;;9.00;8.80;;;10.60;99.90;;;;;;5078922;28;20468;-84
2023/04/25 01:47:41;;;;;;;9.23;9.03;;;10.50;99.90;;;;;;5080090;28;20478;-84
2023/04/25 01:50:10;;;;;;;8.80;8.50;;;10.50;99.90;;;;;;5082011;28;20460;-85
2023/04/25 01:52:40;;;;;;;9.47;8.87;;;10.50;99.90;;;;;;5081712;28;20454;-86
2023/04/25 01:55:09;;;;;;;8.87;8.57;;;10.50;99.90;;;;;;5084966;28;20467;-84
2023/04/25 01:57:37;;;;;;;8.80;8.60;;;10.40;99.90;;;;;;5079285;28;20447;-84
2023/04/25 02:00:08;;;;;;;9.10;8.80;;;10.40;99.90;;;;;;5080351;28;20730;-84
2023/04/25 02:02:36;;;;;;;9.10;8.90;;;10.40;99.90;;;;;;5079863;28;20464;-84
2023/04/25 02:05:06;;;;;;;9.23;8.93;;;10.30;99.90;;;;;;5083753;28;20875;-84
2023/04/25 02:07:34;;;;;;;8.80;8.60;;;10.40;99.90;;;;;;5079415;28;20505;-83
2023/04/25 02:10:04;;;;;;;9.10;8.90;;;10.40;99.90;;;;;;5080183;28;20455;-84
2023/04/25 02:12:32;;;;;;;9.10;8.90;;;10.30;99.90;;;;;;5081494;28;20525;-85
2023/04/25 02:15:00;;;;;;;9.13;8.93;;;10.30;1.00;;;;;;5079112;28;21104;-85
2023/04/25 02:17:28;;;;;;;9.60;9.17;;;10.30;1.00;;;;;;5085595;28;20444;-84
2023/04/25 02:19:57;;;;;;;9.20;9.00;;;10.30;1.00;;;;;;5078599;28;20454;-85
2023/04/25 02:22:26;;;;;;;9.80;9.50;;;10.40;99.90;;;;;;5084822;28;20446;-84
2023/04/25 02:24:54;;;;;;;9.70;9.40;;;10.30;99.90;;;;;;5084753;28;20523;-84
2023/04/25 02:27:24;;;;;;;9.07;8.87;;;10.40;99.90;;;;;;5079543;28;20476;-84
2023/04/25 02:29:52;;;;;;;9.37;8.97;;;10.40;99.90;;;;;;5082168;28;20451;-84
2023/04/25 02:32:20;;;;;;;9.30;9.00;;;10.30;1.00;;;;;;5079158;28;20463;-84
2023/04/25 02:34:49;;;;;;;9.67;9.47;;;10.30;99.90;;;;;;5078537;28;20549;-84
2023/04/25 02:37:17;;;;;;;9.57;9.17;;;10.30;99.90;;;;;;5078288;28;21228;-85
2023/04/25 02:39:45;;;;;;;9.37;9.07;;;10.30;99.90;;;;;;5078793;28;20518;-84
2023/04/25 02:42:13;;;;;;;9.20;8.90;;;10.30;1.00;;;;;;5077712;28;21102;-84
2023/04/25 02:44:43;;;;;;;9.90;9.60;;;10.40;99.90;;;;;;5077530;28;20448;-84
2023/04/25 02:47:11;;;;;;;9.73;9.53;;;10.40;1.00;;;;;;5076358;28;20467;-84
2023/04/25 02:49:39;;;;;;;9.87;9.37;;;10.30;1.00;;;;;;5076465;28;21044;-85
2023/04/25 02:52:08;;;;;;;9.53;9.23;;;10.30;99.90;;;;;;5077696;28;20472;-84
2023/04/25 02:54:36;;;;;;;9.70;9.50;;;10.30;1.00;;;;;;5079380;28;20456;-85
2023/04/25 02:57:05;;;;;;;9.23;8.83;;;10.30;99.90;;;;;;5075413;28;20645;-84
2023/04/25 02:59:33;;;;;;;9.57;9.17;;;10.30;99.90;;;;;;5076264;28;20461;-82
2023/04/25 03:02:03;;;;;;;9.37;8.97;;;10.30;99.90;;;;;;5076273;28;20475;-84
2023/04/25 03:04:31;;;;;;;8.93;8.73;;;10.30;99.90;;;;;;5076006;28;20835;-83
2023/04/25 03:06:59;;;;;;;10.60;10.30;;;10.20;1.00;;;;;;5076354;28;20456;-84
2023/04/25 03:09:28;;;;;;;9.97;9.67;;;10.20;1.00;;;;;;5074758;28;20875;-83
2023/04/25 03:11:56;;;;;;;10.03;9.70;;;10.30;1.00;;;;;;5077552;28;20832;-83
2023/04/25 03:14:25;;;;;;;10.10;9.80;;;10.20;1.00;;;;;;5076334;28;20452;-83
2023/04/25 03:16:53;;;;;;;10.60;10.30;;;10.20;1.00;;;;;;5093975;27;20531;-83
2023/04/25 03:19:23;;;;;;;10.40;10.10;;;10.30;1.00;;;;;;5077292;28;20987;-83
2023/04/25 03:21:51;;;;;;;10.90;10.50;;;10.30;1.00;;;;;;5081829;28;20460;-84
2023/04/25 03:24:19;;;;;;;10.50;10.20;;;10.30;1.00;;;;;;5078376;28;20460;-83
2023/04/25 03:26:47;;;;;;;10.27;9.97;;;10.30;1.00;;;;;;5079816;28;20481;-84
2023/04/25 03:29:16;;;;;;;10.67;10.37;;;10.30;1.00;;;;;;5076526;28;20471;-83
2023/04/25 03:31:44;;;;;;;10.73;10.43;;;10.40;99.90;;;;;;5076766;28;21092;-84
2023/04/25 03:34:14;;;;;;;11.27;10.83;;;10.30;99.90;;;;;;5082138;28;20483;-84
2023/04/25 03:36:43;;;;;;;10.80;10.50;;;10.40;99.90;;;;;;5078773;28;21009;-84
2023/04/25 03:39:11;;;;;;;11.27;10.87;;;10.40;99.90;;;;;;5078583;28;20453;-84
2023/04/25 03:41:39;;;;;;;10.67;10.40;;;10.30;99.90;;;;;;5081266;28;20503;-84
2023/04/25 03:44:08;;;;;;;11.00;10.70;;;10.30;99.90;;;;;;5078602;28;20463;-84
2023/04/25 03:46:36;;;;;;;11.60;11.20;;;10.20;99.90;;;;;;5078629;28;20552;-84
2023/04/25 03:49:04;;;;;;;11.10;10.30;;;10.20;99.90;;;;;;5079851;28;20486;-83
2023/04/25 03:51:32;;;;;;;10.40;10.10;;;10.30;99.90;;;;;;5078869;28;21021;-84
2023/04/25 03:54:02;;;;;;;10.90;10.40;;;10.30;99.90;;;;;;5079589;28;20465;-83
2023/04/25 03:56:31;;;;;;;10.30;10.07;;;10.20;99.90;;;;;;5077774;28;20449;-83
2023/04/25 03:58:59;;;;;;;11.10;10.70;;;10.20;99.90;;;;;;5076513;28;21421;-82
2023/04/25 04:01:29;;;;;;;10.90;10.47;;;10.30;99.90;;;;;;5074355;28;20645;-83
2023/04/25 04:03:57;;;;;;;10.33;10.03;;;10.30;99.90;;;;;;5080469;28;20469;-83
2023/04/25 04:06:26;;;;;;;11.43;10.97;;;10.30;99.90;;;;;;5075462;28;20451;-83
2023/04/25 04:08:55;;;;;;;11.10;10.70;;;10.20;99.90;;;;;;5078135;28;20466;-83
2023/04/25 04:11:24;;;;;;;11.60;11.00;;;10.20;1.00;;;;;;5080675;28;20475;-84
2023/04/25 04:13:52;;;;;;;11.17;10.83;;;10.20;1.00;;;;;;5078073;28;20455;-83
2023/04/25 04:16:21;;;;;;;11.73;11.23;;;10.20;99.90;;;;;;5079574;28;20921;-82
2023/04/25 04:18:49;;;;;;;11.70;11.30;;;10.20;1.00;;;;;;5073110;28;20453;-83
2023/04/25 04:21:17;;;;;;;11.90;11.50;;;10.10;1.00;;;;;;5079019;28;20471;-84
2023/04/25 04:23:46;;;;;;;13.17;12.53;;;10.10;1.00;;;;;;5078588;28;20481;-83
2023/04/25 04:26:16;;;;;;;11.90;11.60;;;10.10;1.00;;;;;;5076565;28;20460;-85
2023/04/25 04:28:45;;;;;;;12.70;11.90;;;10.10;1.00;;;;;;5077600;28;20473;-83
2023/04/25 04:31:16;;;;;;;11.73;11.43;;;10.00;1.00;;;;;;5075692;28;21875;-81
2023/04/25 04:33:45;;;;;;;12.00;11.60;;;10.00;1.00;;;;;;5080194;28;20472;-84
2023/04/25 04:36:14;;;;;;;11.97;11.67;;;10.00;1.00;;;;;;5078868;28;20497;-83
2023/04/25 04:38:42;;;;;;;12.27;11.87;;;10.00;1.00;;;;;;5078163;28;20838;-83
2023/04/25 04:41:10;;;;;;;11.83;11.43;;;9.90;1.00;;;;;;5076164;28;20498;-84
2023/04/25 04:43:39;;;;;;;12.53;12.03;;;9.90;1.00;;;;;;5079367;28;20452;-83
2023/04/25 04:46:10;;;;;;;13.27;12.80;;;10.00;1.00;;;;;;5075723;28;20496;-82
2023/04/25 04:48:39;;;;;;;14.30;13.43;;;10.00;1.00;;;;;;5081118;28;20602;-85
2023/04/25 04:51:08;;;;;;;12.40;11.90;;;9.90;1.00;;;;;;5079464;28;20479;-83
2023/04/25 04:53:36;;;;;;;12.80;12.30;;;9.90;1.00;;;;;;5084390;28;20458;-83
2023/04/25 04:56:05;;;;;;;13.53;13.03;;;9.90;1.00;;;;;;5080790;28;20459;-84
2023/04/25 04:58:33;;;;;;;12.50;12.00;;;9.90;1.00;;;;;;5084729;28;20957;-82
2023/04/25 05:01:01;;;;;;;12.53;12.00;;;10.00;1.00;;;;;;5082061;28;20518;-83
2023/04/25 05:03:31;;;;;;;12.60;12.20;;;10.00;1.00;;;;;;5087614;28;20498;-85
2023/04/25 05:05:59;;;;;;;13.07;12.37;;;10.00;1.00;;;;;;5081199;28;20458;-83
2023/04/25 05:08:27;;;;;;;12.77;12.37;;;10.10;1.00;;;;;;5075017;28;20446;-83
2023/04/25 05:10:56;;;;;;;12.53;12.13;;;10.10;1.00;;;;;;5076827;28;21257;-83
2023/04/25 05:13:24;;;;;;;12.90;12.40;;;10.20;1.00;;;;;;5078495;28;20452;-83
2023/04/25 05:15:52;;;;;;;12.60;12.13;;;10.10;1.00;;;;;;5077017;28;20188;-84
2023/04/25 05:18:23;;;;;;;12.50;12.10;;;10.20;1.00;;;;;;5085528;28;20489;-85
2023/04/25 05:20:54;;;;;;;13.33;12.80;;;10.20;1.00;;;;;;5082792;28;20473;-83
2023/04/25 05:23:28;;;;;;;12.53;12.13;;;10.20;1.00;;;;;;5080811;28;21093;-83
2023/04/25 05:25:59;;;;;;;12.53;12.13;;;10.20;1.00;;;;;;5087399;28;20460;-84
2023/04/25 05:28:30;;;;;;;13.43;12.93;;;10.20;1.00;;;;;;5077596;28;20471;-83
2023/04/25 05:30:59;;;;;;;14.30;13.60;;;10.20;1.00;;;;;;5078228;28;20486;-80
2023/04/25 05:33:27;;;;;;;13.60;13.10;;;10.20;1.00;;;;;;5077086;28;20489;-80
2023/04/25 05:35:56;;;;;;;15.30;14.60;;;10.20;1.00;;;;;;5076967;28;20464;-80
2023/04/25 05:38:24;;;;;;;13.67;13.17;;;10.20;1.00;;;;;;5080287;28;20439;-80
2023/04/25 05:40:53;;;;;;;13.37;12.97;;;10.20;1.00;;;;;;5078977;28;20476;-80
2023/04/25 05:43:21;;;;;;;13.70;13.10;;;10.30;1.00;;;;;;5077200;28;20493;-80
2023/04/25 05:45:49;;;;;;;13.50;13.00;;;10.30;1.00;;;;;;5077185;28;20453;-80
2023/04/25 05:48:17;;;;;;;13.70;13.10;;;10.30;1.00;;;;;;5076943;28;20457;-80
2023/04/25 05:50:45;;;;;;;13.53;12.90;;;10.30;1.00;;;;;;5075842;28;20485;-80
2023/04/25 05:53:15;;;;;;;13.37;12.87;;;10.20;1.00;;;;;;5078712;28;20966;-80
2023/04/25 05:55:43;;;;;;;14.00;13.30;;;10.30;1.00;;;;;;5079596;28;20446;-80
2023/04/25 05:58:11;;;;;;;12.93;12.43;;;10.20;1.00;;;;;;5080713;28;20515;-80
2023/04/25 06:00:41;;;;;;;13.30;12.80;;;10.20;1.00;;;;;;5078170;28;20518;-81
2023/04/25 06:03:10;;;;;;;12.90;12.50;;;10.30;1.00;;;;;;5079007;28;20462;-81
2023/04/25 06:05:38;;;;;;;12.83;12.43;;;10.30;1.00;;;;;;5081540;28;20456;-80
2023/04/25 06:08:06;;;;;;;12.70;12.30;;;10.30;1.00;;;;;;5076626;28;20446;-81
2023/04/25 06:10:36;;;;;;;12.90;12.40;;;10.30;1.00;;;;;;5085019;28;20519;-82
2023/04/25 06:13:05;;;;;;;13.30;12.70;;;10.30;1.00;;;;;;5090228;28;20463;-81
2023/04/25 06:15:34;;;;;;;13.80;13.10;;;10.40;1.00;;;;;;5089440;28;20439;-78
2023/04/25 06:18:03;;;;;;;14.40;13.40;;;10.40;1.00;;;;;;5086458;28;20478;-82
2023/04/25 06:20:31;;;;;;;13.80;13.30;;;10.40;14.60;;;;;;5076666;28;20513;-80
2023/04/25 06:22:59;;;;;;;14.50;13.63;;;10.50;1.00;;;;;;5076789;28;20889;-80
2023/04/25 06:25:27;;;;;;;14.07;13.57;;;10.60;1.00;;;;;;5082230;28;20469;-80
2023/04/25 06:27:57;;;;;;;14.97;14.27;;;10.60;1.00;;;;;;5076572;28;20460;-81
2023/04/25 06:30:25;;;;;;;13.93;13.40;;;10.60;1.00;;;;;;5070199;28;20490;-79
2023/04/25 06:32:53;;;;;;;14.13;13.53;;;10.60;1.00;;;;;;5073525;28;20522;-80
2023/04/25 06:35:22;;;;;;;14.57;13.97;;;10.60;1.00;;;;;;5073303;28;20456;-79
2023/04/25 06:37:50;;;;;;;14.33;13.63;;;10.50;1.00;;;;;;5076716;28;21044;-79
2023/04/25 06:40:18;;;;;;;14.20;13.70;;;10.60;1.00;;;;;;5074282;28;20452;-79
2023/04/25 06:42:46;;;;;;;14.37;13.80;;;10.50;1.00;;;;;;5072562;28;20520;-80
2023/04/25 06:45:16;;;;;;;14.50;13.80;;;10.50;1.00;;;;;;5074406;28;20452;-80
2023/04/25 06:47:44;;;;;;;13.83;13.23;;;10.50;1.00;;;;;;5073332;28;20460;-79
2023/04/25 06:50:12;;;;;;;13.40;12.90;;;10.40;1.00;;;;;;5070293;28;21064;-80
2023/04/25 06:52:40;;;;;;;13.93;13.20;;;10.40;1.00;;;;;;5072103;28;20461;-80
2023/04/25 06:55:10;;;;;;;13.40;12.90;;;10.40;1.00;;;;;;5076720;28;20539;-80
2023/04/25 06:57:38;;;;;;;13.13;12.63;;;10.40;1.00;;;;;;5074967;28;20454;-81
2023/04/25 07:00:09;;;;;;;13.80;13.20;;;10.40;1.00;;;;;;5070744;28;20457;-81
2023/04/25 07:02:38;;;;;;;14.10;13.50;;;10.40;1.00;;;;;;5072518;28;20497;-79
2023/04/25 07:05:07;;;;;;;14.80;14.10;;;10.40;1.00;;;;;;5073050;28;20458;-80
2023/04/25 07:07:35;;;;;;;13.87;13.20;;;10.30;1.00;;;;;;5075599;28;20450;-79
2023/04/25 07:10:04;;;;;;;14.30;13.60;;;10.40;1.00;;;;;;5070199;28;21086;-80
2023/04/25 07:12:32;;;;;;;12.77;12.37;;;10.40;1.00;;;;;;5073278;28;21319;-80
2023/04/25 07:15:05;;;;;;;13.87;13.20;;;10.40;1.00;;;;;;5071563;28;20466;-81
2023/04/25 07:17:34;;;;;;;13.83;13.13;;;10.40;1.00;;;;;;5076195;28;20438;-81
2023/04/25 07:20:05;;;;;;;13.63;13.13;;;10.30;1.00;;;;;;5087944;27;20955;-81
2023/04/25 07:22:33;;;;;;;14.03;13.43;;;10.40;1.00;;;;;;5073707;28;20444;-79
2023/04/25 07:25:02;;;;;;;13.57;12.60;;;10.50;1.00;;;;;;5072294;28;20454;-81
2023/04/25 07:27:30;;;;;;;13.13;12.77;;;10.50;1.00;;;;;;5070714;28;20505;-80
2023/04/25 07:29:59;;;;;;;13.77;13.23;;;10.50;1.00;;;;;;5069724;28;20477;-80
2023/04/25 07:32:27;;;;;;;13.50;13.00;;;10.40;1.00;;;;;;5069563;28;21164;-83
2023/04/25 07:34:55;;;;;;;13.67;13.17;;;10.40;1.00;;;;;;5073470;28;20461;-80
2023/04/25 07:37:25;;;;;;;14.30;13.73;;;10.40;1.00;;;;;;5072837;28;20466;-79
2023/04/25 07:39:54;;;;;;;14.75;14.15;;;10.30;1.00;;;;;;5070909;28;20459;-79
2023/04/25 07:42:22;;;;;;;14.67;14.07;;;10.10;99.90;;;;;;5069788;28;20232;-78
2023/04/25 07:44:51;;;;;;;13.50;13.10;;;10.30;99.90;;;;;;5063253;28;20475;-79
2023/04/25 07:47:20;;;;;;;13.73;13.03;;;10.30;1.00;;;;;;5072199;28;21255;-79
2023/04/25 07:49:48;;;;;;;14.70;14.00;;;10.30;1.00;;;;;;5071737;28;20507;-78
2023/04/25 07:52:16;;;;;;;14.97;14.47;;;10.20;99.90;;;;;;5073272;28;20470;-78
2023/04/25 07:54:47;;;;;;;15.37;14.67;;;10.30;99.90;;;;;;5073718;28;20462;-79
2023/04/25 07:57:16;;;;;;;15.10;14.57;;;10.30;99.90;;;;;;5073771;28;20458;-79
2023/04/25 07:59:44;;;;;;;14.23;13.70;;;10.20;99.90;;;;;;5071885;28;20467;-80
2023/04/25 08:02:13;;;;;;;15.87;15.00;;;10.20;99.90;;;;;;5075520;28;20493;-79
2023/04/25 08:04:41;;;;;;;15.30;14.70;;;10.20;99.90;;;;;;5072841;28;20455;-79
2023/04/25 08:07:10;;;;;;;14.83;14.23;;;10.20;99.90;;;;;;5071641;28;20977;-79
2023/04/25 08:09:38;;;;;;;14.27;13.77;;;10.20;99.90;;;;;;5070352;28;20466;-80
2023/04/25 08:12:08;;;;;;;14.27;13.57;;;10.20;99.90;;;;;;5074718;28;20865;-80
2023/04/25 08:14:37;;;;;;;15.83;15.00;;;10.30;99.90;;;;;;5072368;28;20455;-81
2023/04/25 08:17:05;;;;;;;15.33;14.57;;;10.20;99.90;;;;;;5070083;28;20524;-80
2023/04/25 08:19:33;;;;;;;14.60;14.10;;;10.30;99.90;;;;;;5071761;28;20462;-78
2023/04/25 08:22:02;;;;;;;14.30;13.87;;;10.30;99.90;;;;;;5075837;28;20467;-80
2023/04/25 08:24:30;;;;;;;14.50;13.97;;;10.20;99.90;;;;;;5073364;28;20464;-80
2023/04/25 08:26:58;;;;;;;14.23;13.73;;;10.20;99.90;;;;;;5075660;28;20447;-80
2023/04/25 08:29:28;;;;;;;14.50;14.00;;;10.20;1.00;;;;;;5070900;28;20459;-79
2023/04/25 08:31:56;;;;;;;15.20;14.60;;;10.30;99.90;;;;;;5074569;28;21170;-80
2023/04/25 08:34:25;;;;;;;14.20;13.70;;;10.20;99.90;;;;;;5070763;28;20460;-79
2023/04/25 08:36:53;;;;;;;14.50;13.97;;;10.20;99.90;;;;;;5074879;28;20446;-78
2023/04/25 08:39:21;;;;;;;14.33;13.83;;;10.20;1.00;;;;;;5065554;28;20461;-80
2023/04/25 08:41:50;;;;;;;13.80;13.20;;;10.30;99.90;;;;;;5070153;28;20506;-79
2023/04/25 08:44:18;;;;;;;14.30;13.80;;;10.20;99.90;;;;;;5071043;28;21227;-80
2023/04/25 08:46:50;;;;;;;14.00;13.50;;;10.10;99.90;;;;;;5078521;28;20456;-79
2023/04/25 08:49:18;;;;;;;13.87;13.37;;;10.10;99.90;;;;;;5071864;28;20460;-80
2023/04/25 08:51:47;;;;;;;14.00;13.57;;;10.10;99.90;;;;;;5076393;28;20484;-79
2023/04/25 08:54:16;;;;;;;13.60;13.03;;;10.10;99.90;;;;;;5073405;28;20519;-79
2023/04/25 08:57:03;;;;;;;13.77;13.27;;;10.10;99.90;;;;;;5071063;28;20454;-79
2023/04/25 08:59:33;;;;;;;14.00;13.50;;;10.00;99.90;;;;;;5074107;28;20536;-79
2023/04/25 09:02:06;;;;;;;15.10;14.50;;;10.00;99.90;;;;;;5072433;28;20581;-78
2023/04/25 09:04:34;;;;;;;13.70;13.30;;;10.00;99.90;;;;;;5075990;28;20511;-79
2023/04/25 09:07:03;;;;;;;14.27;13.60;;;10.00;99.90;;;;;;5071978;28;20454;-79
2023/04/25 09:09:31;;;;;;;14.13;13.37;;;10.00;99.90;;;;;;5071488;28;20442;-80
2023/04/25 09:12:01;;;;;;;13.80;13.30;;;9.90;99.90;;;;;;5068387;28;20488;-81
2023/04/25 09:14:30;;;;;;;14.67;14.17;;;9.90;99.90;;;;;;5069412;28;20465;-79
2023/04/25 09:17:04;;;;;;;14.30;13.80;;;10.00;99.90;;;;;;5087758;28;20475;-79
2023/04/25 09:19:36;;;;;;;13.37;13.00;;;10.00;99.90;;;;;;5073017;28;20446;-81
2023/04/25 09:22:09;;;;;;;14.00;13.60;;;10.00;99.90;;;;;;5072201;28;20556;-81
2023/04/25 09:24:39;;;;;;;13.70;13.20;;;10.00;34.10;;;;;;5072998;28;20449;-80
2023/04/25 09:27:09;;;;;;;14.03;13.53;;;10.00;99.90;;;;;;5070727;28;20470;-80
2023/04/25 09:29:39;;;;;;;13.20;12.80;;;10.00;99.90;;;;;;5069135;28;20481;-80
2023/04/25 09:32:19;;;;;;;13.43;13.03;;;9.90;99.90;;;;;;5076244;28;20480;-80
2023/04/25 09:34:50;;;;;;;14.40;13.90;;;9.90;99.90;;;;;;5074636;28;20455;-80
2023/04/25 09:37:20;;;;;;;14.13;13.07;;;9.90;99.90;;;;;;5076683;28;20454;-80
2023/04/25 09:39:49;;;;;;;13.10;12.70;;;9.90;99.90;;;;;;5072990;28;20545;-80
2023/04/25 09:42:18;;;;;;;12.53;12.13;;;9.90;99.90;;;;;;5075354;28;20479;-80
2023/04/25 09:44:47;;;;;;;12.50;12.20;;;9.90;99.90;;;;;;5075363;28;20470;-79
2023/04/25 09:47:17;;;;;;;11.90;11.60;;;9.90;99.90;;;;;;5073656;28;20461;-78
2023/04/25 09:49:45;;;;;;;11.80;11.40;;;9.80;99.90;;;;;;5070560;28;20484;-79
2023/04/25 09:52:19;;;;;;;11.50;11.30;;;9.80;99.90;;;;;;5076682;28;20491;-80
2023/04/25 09:54:49;;;;;;;11.87;11.57;;;9.90;99.90;;;;;;5076476;28;20480;-79
2023/04/25 09:57:19;;;;;;;11.20;11.00;;;9.90;99.90;;;;;;5077006;28;20450;-80
2023/04/25 09:59:48;;;;;;;11.30;11.07;;;9.90;99.90;;;;;;5073309;28;20533;-80
2023/04/25 10:02:19;;;;;;;11.60;11.20;;;9.90;94.90;;;;;;5074657;28;20458;-79
2023/04/25 10:04:51;;;;;;;11.13;10.80;;;9.80;97.50;;;;;;5074587;28;20473;-80
2023/04/25 10:07:25;;;;;;;11.00;10.80;;;9.80;99.90;;;;;;5078911;28;20510;-79
2023/04/25 10:10:00;;;;;;;10.70;10.50;;;9.80;99.90;;;;;;5070601;28;20580;-79
2023/04/25 10:12:28;;;;;;;11.33;11.03;;;9.90;60.50;;;;;;5075005;28;20481;-78
2023/04/25 10:14:57;;;;;;;11.00;10.80;;;9.80;40.50;;;;;;5077850;28;20479;-79
2023/04/25 10:17:26;;;;;;;11.27;11.07;;;9.90;99.90;;;;;;5077801;28;20453;-79
2023/04/25 10:19:56;;;;;;;11.40;11.20;;;9.80;21.90;;;;;;5078653;28;20446;-79
2023/04/25 10:22:31;;;;;;;11.97;11.73;;;9.70;1.00;;;;;;5076650;28;21024;-79
2023/04/25 10:25:03;;;;;;;10.70;10.50;;;9.70;99.90;;;;;;5074816;28;20450;-79
2023/04/25 10:27:32;;;;;;;11.00;10.70;;;9.70;99.90;;;;;;5075006;28;20449;-81
2023/04/25 10:30:05;;;;;;;10.80;10.60;;;9.70;99.90;;;;;;5077058;28;20445;-79
2023/04/25 10:32:34;;;;;;;10.63;10.43;;;9.80;99.90;;;;;;5071474;28;20538;-78
2023/04/25 10:35:13;;;;;;;10.70;10.50;;;9.80;99.90;;;;;;5076075;28;20472;-79
2023/04/25 10:38:00;;;;;;;10.90;10.70;;;9.80;99.90;;;;;;5077199;28;20438;-79
2023/04/25 10:40:29;;;;;;;10.73;10.53;;;9.80;99.90;;;;;;5076107;28;20473;-78
2023/04/25 10:43:37;;;;;;;10.80;10.60;;;9.90;1.00;;;;;;5072855;28;20443;-80
2023/04/25 10:46:15;;;;;;;11.17;10.97;;;9.80;99.90;;;;;;5076920;28;20456;-79
2023/04/25 10:48:49;;;;;;;10.83;10.63;;;9.90;99.90;;;;;;5077087;28;20458;-80
2023/04/25 10:51:22;;;;;;;10.73;10.53;;;9.90;17.00;;;;;;5074396;28;20502;-79
2023/04/25 10:54:02;;;;;;;10.83;10.63;;;9.90;99.90;;;;;;5078361;28;20471;-80
2023/04/25 10:56:31;;;;;;;10.77;10.47;;;9.80;99.90;;;;;;5074959;28;20451;-81
2023/04/25 10:59:09;;;;;;;11.20;11.00;;;9.90;1.00;;;;;;5074390;28;20948;-79
2023/04/25 11:01:39;;;;;;;10.77;10.57;;;9.90;99.90;;;;;;5077154;28;20462;-78
2023/04/25 11:04:21;;;;;;;10.73;10.50;;;10.00;99.90;;;;;;5074318;28;20498;-79
2023/04/25 11:07:05;;;;;;;11.40;11.00;;;10.00;99.90;;;;;;5076990;28;20442;-79
2023/04/25 11:09:39;;;;;;;10.90;10.70;;;10.00;99.90;;;;;;5074268;28;21029;-79
2023/04/25 11:12:09;;;;;;;11.17;10.97;;;10.00;99.90;;;;;;5070156;28;20470;-81
2023/04/25 11:14:38;;;;;;;11.30;11.10;;;10.00;1.00;;;;;;5073778;28;21481;-80
2023/04/25 11:17:11;;;;;;;10.97;10.70;;;10.00;99.90;;;;;;5076374;28;20484;-78
2023/04/25 11:19:40;;;;;;;11.03;10.83;;;10.10;99.90;;;;;;5076236;28;20454;-79
2023/04/25 11:22:08;;;;;;;11.10;10.83;;;10.10;1.00;;;;;;5069088;28;20499;-80
2023/04/25 11:24:37;;;;;;;10.77;10.57;;;10.10;99.90;;;;;;5071081;28;20508;-79
2023/04/25 11:27:06;;;;;;;10.50;10.30;;;10.10;99.90;;;;;;5069406;28;20487;-79
2023/04/25 11:29:35;;;;;;;10.70;10.50;;;10.00;99.90;;;;;;5069091;28;20454;-80
2023/04/25 11:32:04;;;;;;;10.80;10.60;;;9.90;1.00;;;;;;5071854;28;20480;-80
2023/04/25 11:34:33;;;;;;;12.83;12.50;;;10.00;99.90;;;;;;5070751;28;20520;-80
2023/04/25 11:37:02;;;;;;;12.40;12.00;;;10.10;99.90;;;;;;5073615;28;20822;-80
2023/04/25 11:39:32;;;;;;;12.40;11.97;;;10.20;18.00;;;;;;5074329;28;20449;-79
2023/04/25 11:42:02;;;;;;;12.53;12.13;;;10.20;99.90;;;;;;5071190;28;20962;-80
2023/04/25 11:44:32;;;;;;;12.57;12.27;;;10.30;99.90;;;;;;5080595;27;20466;-80
2023/04/25 11:47:01;;;;;;;12.60;12.30;;;10.30;99.90;;;;;;5068892;28;20944;-79
2023/04/25 11:49:31;;;;;;;12.77;12.47;;;10.30;1.00;;;;;;5068850;28;20460;-79
2023/04/25 11:52:00;;;;;;;12.80;12.50;;;10.30;99.90;;;;;;5071394;28;20465;-78
2023/04/25 11:54:28;;;;;;;13.73;13.30;;;10.40;99.90;;;;;;5070045;28;20472;-80
2023/04/25 11:56:56;;;;;;;12.43;12.13;;;10.40;99.90;;;;;;5068947;28;20446;-78
2023/04/25 11:59:27;;;;;;;12.60;12.27;;;10.50;1.00;;;;;;5069904;28;20861;-78
2023/04/25 12:01:57;;;;;;;12.63;12.33;;;10.50;99.90;;;;;;5072410;28;20465;-79
2023/04/25 12:04:26;;;;;;;12.47;12.17;;;10.60;99.90;;;;;;5071174;28;20451;-79
2023/04/25 12:06:55;;;;;;;12.70;12.40;;;10.80;99.90;;;;;;5071022;28;20443;-78
2023/04/25 12:09:30;;;;;;;12.33;12.03;;;10.80;99.90;;;;;;5076817;28;20453;-78
2023/04/25 12:12:02;;;;;;;12.80;12.50;;;10.90;1.00;;;;;;5076752;28;20839;-78
2023/04/25 12:14:36;;;;;;;12.83;12.53;;;11.00;1.00;;;;;;5072373;28;20605;-77
2023/04/25 12:17:07;;;;;;;12.63;12.33;;;11.00;1.00;;;;;;5073887;28;20551;-79
2023/04/25 12:19:39;;;;;;;13.33;12.93;;;11.00;1.00;;;;;;5074189;28;20466;-77
2023/04/25 12:22:22;;;;;;;14.20;13.80;;;11.00;99.90;;;;;;5073827;28;21019;-78
2023/04/25 12:24:53;;;;;;;14.00;13.60;;;10.80;99.90;;;;;;5075527;28;20544;-79
2023/04/25 12:27:21;;;;;;;13.50;13.10;;;10.90;1.00;;;;;;5074151;28;20470;-78
2023/04/25 12:29:55;;;;;;;13.53;13.13;;;10.90;99.90;;;;;;5074445;28;20516;-78
2023/04/25 12:32:24;;;;;;;14.50;14.00;;;10.80;99.90;;;;;;5074921;28;20473;-79
2023/04/25 12:34:52;;;;;;;14.40;13.90;;;10.80;99.90;;;;;;5077393;28;20458;-78
2023/04/25 12:37:20;;;;;;;14.93;14.33;;;10.70;99.90;;;;;;5072011;28;20994;-79
2023/04/25 12:39:49;;;;;;;15.07;14.50;;;10.80;1.00;;;;;;5074691;28;20462;-80
2023/04/25 12:42:17;;;;;;;14.87;14.27;;;10.80;1.00;;;;;;5076989;28;20474;-78
2023/04/25 12:44:46;;;;;;;15.10;14.50;;;10.70;15.40;;;;;;5076587;28;20526;-78
2023/04/25 12:47:16;;;;;;;15.00;14.40;;;10.50;13.60;;;;;;5073889;28;20482;-77
2023/04/25 12:49:44;;;;;;;14.53;14.03;;;10.50;99.90;;;;;;5073920;28;21289;-78